Time;durP1;ratioP1;P1;durP2;ratioP2;P2;SDS_P1;SDS_P2;PMS_P1;PMS_P2;Temp;Humidity;BMP_temperature;BMP_pressure;BME280_temperature;BME280_humidity;BME280_pressure;Samples;Min_cycle;Max_cycle;Signal;HPM_P1;HPM_P2
2024/03/30 00:00:06;;;;;;;22.33;12.18;;;;;;;14.03;63.03;98950.75;5055156;27;98191;-87
2024/03/30 00:02:37;;;;;;;17.77;11.65;;;;;;;14.24;62.06;98954.53;5035573;27;97808;-86
2024/03/30 00:05:03;;;;;;;14.27;11.95;;;;;;;14.21;61.88;98953.91;5037693;27;97077;-86
2024/03/30 00:07:29;;;;;;;20.52;13.70;;;;;;;14.28;62.13;98949.84;5038085;27;96922;-86
2024/03/30 00:09:55;;;;;;;15.27;13.52;;;;;;;14.21;62.01;98941.53;5037750;27;98618;-86
2024/03/30 00:12:20;;;;;;;23.52;13.00;;;;;;;14.13;62.54;98937.75;5038606;27;97546;-87
2024/03/30 00:14:46;;;;;;;21.10;15.18;;;;;;;14.21;62.03;98944.19;5038228;27;96564;-86
2024/03/30 00:17:11;;;;;;;18.65;16.67;;;;;;;14.13;62.64;98940.41;5020835;27;96852;-87
2024/03/30 00:19:38;;;;;;;17.27;13.98;;;;;;;14.03;62.81;98943.69;5036886;27;98615;-86
2024/03/30 00:22:03;;;;;;;20.15;13.27;;;;;;;14.00;62.92;98940.44;5037110;27;101263;-86
2024/03/30 00:24:29;;;;;;;16.05;13.75;;;;;;;13.73;63.71;98935.25;5037666;27;96561;-85
2024/03/30 00:26:55;;;;;;;19.17;12.32;;;;;;;13.77;63.35;98931.47;5020597;27;96599;-86
2024/03/30 00:29:20;;;;;;;19.65;13.05;;;;;;;13.85;63.36;98937.06;5020147;27;101183;-86
2024/03/30 00:31:46;;;;;;;20.08;12.80;;;;;;;13.94;62.84;98936.41;5020647;27;101328;-87
2024/03/30 00:34:11;;;;;;;18.38;14.68;;;;;;;13.81;62.96;98923.22;5037328;27;96518;-87
2024/03/30 00:36:37;;;;;;;16.38;11.95;;;;;;;13.80;63.35;98932.09;5055097;27;96913;-87
2024/03/30 00:39:07;;;;;;;16.92;15.18;;;;;;;13.76;63.20;98929.78;5036837;27;101099;-86
2024/03/30 00:41:34;;;;;;;19.73;14.70;;;;;;;13.51;64.44;98922.72;5038144;27;97889;-87
2024/03/30 00:44:00;;;;;;;17.67;15.65;;;;;;;13.52;64.21;98929.66;5036625;27;96540;-85
2024/03/30 00:46:25;;;;;;;14.38;12.85;;;;;;;13.57;64.22;98930.19;5037220;27;96901;-84
2024/03/30 00:48:51;;;;;;;16.40;12.90;;;;;;;13.47;64.66;98927.34;5037009;27;98282;-86
2024/03/30 00:51:16;;;;;;;18.35;15.32;;;;;;;13.40;65.12;98926.06;5036619;27;101455;-86
2024/03/30 00:53:42;;;;;;;17.27;13.15;;;;;;;13.43;65.04;98925.03;5036840;27;96547;-85
2024/03/30 00:56:07;;;;;;;13.68;9.38;;;;;;;13.32;65.69;98925.72;5020347;27;96947;-85
2024/03/30 00:58:33;;;;;;;19.63;12.20;;;;;;;13.23;65.67;98914.00;5040198;27;100233;-85
2024/03/30 01:00:58;;;;;;;16.08;11.00;;;;;;;13.33;64.88;98915.09;5040247;27;101614;-85
2024/03/30 01:03:24;;;;;;;16.85;9.55;;;;;;;13.48;64.70;98925.56;5056897;27;96889;-85
2024/03/30 01:05:49;;;;;;;15.05;9.80;;;;;;;13.50;64.51;98921.03;5040277;27;96833;-85
2024/03/30 01:08:16;;;;;;;18.13;10.07;;;;;;;13.67;63.92;98928.63;5039833;27;97845;-85
2024/03/30 01:10:42;;;;;;;17.92;11.88;;;;;;;13.59;64.18;98929.16;5023172;27;101147;-86
2024/03/30 01:13:08;;;;;;;17.70;15.57;;;;;;;13.72;63.90;98936.22;5023223;27;96594;-85
2024/03/30 01:15:33;;;;;;;12.20;4.97;;;;;;;13.59;63.84;98934.41;5040404;27;96651;-85
2024/03/30 01:17:59;;;;;;;14.10;4.80;;;;;;;13.39;64.96;98937.56;5056920;27;97800;-85
2024/03/30 01:20:25;;;;;;;17.25;5.53;;;;;;;13.33;65.18;98936.19;5040092;27;97449;-85
2024/03/30 01:22:51;;;;;;;15.25;4.45;;;;;;;13.41;64.83;98938.31;5040034;27;96590;-85
2024/03/30 01:25:17;;;;;;;14.70;4.90;;;;;;;13.41;65.23;98948.84;5040671;27;96665;-84
2024/03/30 01:27:43;;;;;;;14.82;4.90;;;;;;;13.31;65.71;98929.31;5039652;27;101620;-85
2024/03/30 01:30:11;;;;;;;14.95;4.72;;;;;;;13.31;65.68;98939.88;5039780;27;100811;-85
2024/03/30 01:32:37;;;;;;;14.20;4.50;;;;;;;13.35;65.40;98934.31;5039298;27;96673;-86
2024/03/30 01:35:03;;;;;;;10.25;4.00;;;;;;;13.41;65.41;98932.16;5056995;27;96809;-85
2024/03/30 01:37:29;;;;;;;13.45;4.43;;;;;;;13.37;65.81;98926.28;5040023;27;97754;-85
2024/03/30 01:39:58;;;;;;;12.07;4.20;;;;;;;13.27;65.89;98927.84;5039959;27;97791;-85
2024/03/30 01:42:28;;;;;;;12.88;4.38;;;;;;;13.23;66.18;98924.53;5040040;27;96635;-86
2024/03/30 01:44:53;;;;;;;11.50;4.07;;;;;;;13.22;66.52;98927.28;5040007;27;96834;-85
2024/03/30 01:47:19;;;;;;;13.25;4.97;;;;;;;13.22;65.84;98916.75;5057816;27;98160;-86
2024/03/30 01:49:45;;;;;;;12.57;4.15;;;;;;;13.25;66.25;98929.72;5040183;27;98406;-86
2024/03/30 01:52:10;;;;;;;10.02;3.25;;;;;;;13.34;65.75;98934.38;5039695;27;96680;-86
2024/03/30 01:54:36;;;;;;;12.95;3.65;;;;;;;13.46;65.71;98941.47;5039764;27;96851;-85
2024/03/30 01:57:02;;;;;;;13.65;4.45;;;;;;;13.41;65.51;98935.69;5056070;27;98388;-86
2024/03/30 01:59:28;;;;;;;15.93;3.60;;;;;;;13.48;65.59;98933.47;5022627;27;101120;-86
2024/03/30 02:01:54;;;;;;;8.48;3.53;;;;;;;13.46;65.18;98930.91;5039698;27;96559;-86
2024/03/30 02:04:23;;;;;;;9.25;3.72;;;;;;;13.42;65.24;98918.06;5039465;27;96885;-86
2024/03/30 02:06:49;;;;;;;10.70;3.50;;;;;;;13.58;64.98;98931.88;5055288;27;98201;-86
2024/03/30 02:09:14;;;;;;;9.02;3.67;;;;;;;13.46;65.39;98938.00;5038222;27;98100;-87
2024/03/30 02:11:40;;;;;;;9.93;3.70;;;;;;;13.45;65.70;98947.69;5056550;27;96553;-87
2024/03/30 02:14:09;;;;;;;14.43;4.10;;;;;;;13.35;65.48;98936.94;5056543;27;97058;-86
2024/03/30 02:16:35;;;;;;;11.02;4.32;;;;;;;13.55;64.49;98951.38;5038206;27;98445;-86
2024/03/30 02:19:03;;;;;;;13.55;3.97;;;;;;;13.61;64.60;98941.38;5038237;27;100107;-86
2024/03/30 02:21:29;;;;;;;11.65;4.00;;;;;;;13.54;64.73;98951.50;5037786;27;96655;-86
2024/03/30 02:23:54;;;;;;;8.80;3.25;;;;;;;13.63;64.70;98953.50;5022039;27;96954;-86
2024/03/30 02:26:20;;;;;;;12.05;3.47;;;;;;;13.61;64.45;98960.66;5021785;27;101866;-86
2024/03/30 02:28:47;;;;;;;9.88;3.72;;;;;;;13.65;64.31;98958.69;5037961;27;101384;-87
2024/03/30 02:31:12;;;;;;;10.25;3.47;;;;;;;13.71;63.91;98959.09;5038367;27;96536;-87
2024/03/30 02:33:38;;;;;;;9.13;3.70;;;;;;;13.74;63.43;98950.97;5038823;27;96564;-86
2024/03/30 02:36:04;;;;;;;11.38;4.43;;;;;;;13.73;64.04;98959.84;5021574;27;101286;-87
2024/03/30 02:38:30;;;;;;;12.55;4.22;;;;;;;13.44;64.54;98955.69;5038786;27;97875;-86
2024/03/30 02:40:56;;;;;;;12.68;3.80;;;;;;;13.32;65.40;98960.88;5038832;27;96741;-86
2024/03/30 02:43:22;;;;;;;14.32;4.18;;;;;;;13.31;65.32;98956.53;5039414;27;96924;-87
2024/03/30 02:45:48;;;;;;;9.40;3.63;;;;;;;13.35;65.11;98946.59;5037620;27;101016;-87
2024/03/30 02:48:14;;;;;;;11.27;3.20;;;;;;;13.45;65.03;98946.84;5021057;27;101358;-86
2024/03/30 02:50:40;;;;;;;10.65;3.75;;;;;;;13.42;64.95;98947.91;5037897;27;96536;-87
2024/03/30 02:53:05;;;;;;;11.43;3.83;;;;;;;13.24;65.59;98941.22;5055040;27;96978;-87
2024/03/30 02:55:31;;;;;;;10.57;3.78;;;;;;;13.14;66.06;98947.06;5037598;27;96757;-87
2024/03/30 02:57:56;;;;;;;12.57;4.38;;;;;;;13.20;66.00;98934.44;5037383;27;102250;-86
2024/03/30 03:00:22;;;;;;;9.30;3.28;;;;;;;13.24;66.17;98938.56;5054787;27;96481;-87
2024/03/30 03:02:47;;;;;;;11.70;4.00;;;;;;;13.27;65.87;98931.34;5037897;27;96933;-87
2024/03/30 03:05:13;;;;;;;12.55;4.13;;;;;;;13.35;65.63;98941.34;4994345;27;1256907;-88
2024/03/30 03:07:38;;;;;;;7.07;3.20;;;;;;;13.36;65.80;98933.34;5038411;27;101399;-87
2024/03/30 03:10:05;;;;;;;9.98;2.80;;;;;;;13.46;65.09;98952.00;5038281;27;96574;-86
2024/03/30 03:12:33;;;;;;;9.32;3.22;;;;;;;13.52;65.07;98945.47;5021976;27;96803;-87
2024/03/30 03:14:58;;;;;;;9.23;3.30;;;;;;;13.66;64.95;98957.72;5055503;27;97775;-87
2024/03/30 03:17:24;;;;;;;10.30;3.65;;;;;;;13.68;64.40;98951.41;5021454;27;101622;-87
2024/03/30 03:19:49;;;;;;;11.80;3.63;;;;;;;13.67;64.72;98952.38;5037535;27;96591;-88
2024/03/30 03:22:15;;;;;;;12.18;4.05;;;;;;;13.39;65.02;98952.53;5039489;27;96835;-87
2024/03/30 03:24:42;;;;;;;7.50;3.03;;;;;;;13.17;65.86;98946.03;5038703;27;98177;-87
2024/03/30 03:27:08;;;;;;;12.80;4.70;;;;;;;13.09;66.60;98956.25;5038616;27;101374;-88
2024/03/30 03:29:34;;;;;;;15.32;3.67;;;;;;;13.10;66.39;98958.75;5038471;27;96595;-87
2024/03/30 03:31:59;;;;;;;15.48;4.03;;;;;;;13.17;66.07;98953.94;5038563;27;96951;-87
2024/03/30 03:34:25;;;;;;;10.55;2.83;;;;;;;13.37;65.43;98960.53;5020912;27;101510;-87
2024/03/30 03:36:50;;;;;;;10.00;3.60;;;;;;;13.38;65.26;98956.09;5055152;27;97450;-87
2024/03/30 03:39:17;;;;;;;9.63;3.45;;;;;;;13.43;65.37;98952.22;5038379;27;96701;-87
2024/03/30 03:41:43;;;;;;;8.50;3.15;;;;;;;13.46;64.80;98953.81;5021551;27;96928;-88
2024/03/30 03:44:08;;;;;;;10.93;3.25;;;;;;;13.45;64.81;98954.75;5055134;27;98056;-87
2024/03/30 03:46:34;;;;;;;11.13;3.13;;;;;;;13.44;64.40;98953.94;5021161;27;101618;-87
2024/03/30 03:48:59;;;;;;;8.70;2.85;;;;;;;13.46;64.20;98959.91;5055456;27;96518;-87
2024/03/30 03:51:24;;;;;;;11.38;4.10;;;;;;;13.48;64.51;98958.03;5038376;27;96953;-88
2024/03/30 03:53:50;;;;;;;7.55;3.00;;;;;;;13.34;65.18;98961.59;5055126;27;98146;-87
2024/03/30 03:56:16;;;;;;;6.22;2.70;;;;;;;13.27;65.19;98955.06;5020919;27;101420;-88
2024/03/30 03:58:41;;;;;;;11.63;2.97;;;;;;;13.20;65.22;98945.81;5054765;27;96597;-87
2024/03/30 04:01:07;;;;;;;14.82;3.38;;;;;;;12.98;65.84;98945.56;5055283;27;96778;-88
2024/03/30 04:03:32;;;;;;;10.23;2.90;;;;;;;12.94;65.69;98950.16;5037737;27;97618;-87
2024/03/30 04:06:10;;;;;;;8.15;4.30;;;;;;;12.91;65.56;98951.25;5037895;27;99529;-86
2024/03/30 04:08:35;;;;;;;8.73;3.20;;;;;;;13.01;65.43;98959.38;5055387;27;96571;-85
2024/03/30 04:11:05;;;;;;;9.05;3.45;;;;;;;12.85;65.89;98950.78;5055311;27;96846;-85
2024/03/30 04:13:37;;;;;;;11.45;3.30;;;;;;;12.89;65.66;98947.84;5021923;27;101025;-86
2024/03/30 04:16:04;;;;;;;11.45;3.95;;;;;;;12.80;65.91;98940.56;5039697;27;100779;-85
2024/03/30 04:18:29;;;;;;;11.70;3.72;;;;;;;12.82;65.35;98941.28;5040328;27;96572;-85
2024/03/30 04:21:03;;;;;;;12.90;4.00;;;;;;;12.61;66.16;98942.69;5039346;27;96829;-86
2024/03/30 04:23:31;;;;;;;10.23;3.65;;;;;;;12.58;66.88;98940.25;5022681;27;100351;-85
2024/03/30 04:26:11;;;;;;;11.68;4.82;;;;;;;12.68;66.54;98941.31;5040301;27;97965;-84
2024/03/30 04:28:37;;;;;;;10.95;4.55;;;;;;;12.75;66.21;98947.06;5041971;27;96671;-85
2024/03/30 04:31:04;;;;;;;7.43;3.88;;;;;;;12.71;65.89;98941.13;5039331;27;96792;-85
2024/03/30 04:33:31;;;;;;;9.60;3.60;;;;;;;12.64;66.00;98943.31;5023703;27;99418;-84
2024/03/30 04:35:58;;;;;;;11.50;3.65;;;;;;;12.61;66.40;98948.78;5041002;27;96720;-85
2024/03/30 04:38:24;;;;;;;11.85;3.90;;;;;;;12.69;66.47;98956.19;5041256;27;96547;-83
2024/03/30 04:40:57;;;;;;;15.85;4.35;;;;;;;12.49;66.40;98960.09;5041478;27;96860;-83
2024/03/30 04:43:22;;;;;;;16.75;3.42;;;;;;;12.65;66.32;98959.94;5040990;27;99727;-83
2024/03/30 04:45:48;;;;;;;9.90;3.17;;;;;;;12.61;66.04;98961.94;5057124;27;96660;-85
2024/03/30 04:48:14;;;;;;;8.93;2.90;;;;;;;12.81;65.84;98965.94;5039307;27;96633;-85
2024/03/30 04:50:40;;;;;;;9.73;3.20;;;;;;;12.93;64.82;98959.03;5039484;27;96604;-84
2024/03/30 04:53:05;;;;;;;7.65;2.95;;;;;;;12.91;65.09;98959.13;5056104;27;98133;-84
2024/03/30 04:55:31;;;;;;;7.93;2.80;;;;;;;12.94;65.38;98960.69;5039287;27;96786;-85
2024/03/30 04:57:56;;;;;;;8.48;3.40;;;;;;;12.95;64.94;98958.94;5042337;27;96612;-84
2024/03/30 05:00:22;;;;;;;13.18;4.35;;;;;;;13.01;65.34;98963.81;5042132;27;96853;-86
2024/03/30 05:02:48;;;;;;;11.57;3.08;;;;;;;13.07;64.28;98947.59;5022910;27;99256;-85
2024/03/30 05:05:13;;;;;;;13.95;3.75;;;;;;;13.13;64.45;98960.34;5023368;27;99339;-86
2024/03/30 05:07:39;;;;;;;10.10;3.80;;;;;;;13.13;64.03;98955.09;5057073;27;96600;-86
2024/03/30 05:10:05;;;;;;;10.60;3.30;;;;;;;13.17;63.68;98946.03;5056558;27;96819;-85
2024/03/30 05:12:30;;;;;;;12.50;3.90;;;;;;;13.25;63.66;98949.03;5037583;27;99539;-85
2024/03/30 05:14:56;;;;;;;11.40;3.20;;;;;;;13.30;63.75;98954.84;5038028;27;97579;-85
2024/03/30 05:17:22;;;;;;;11.93;3.40;;;;;;;13.34;63.48;98944.94;5037477;27;96541;-86
2024/03/30 05:22:56;;;;;;;9.88;3.55;;;;;;;13.41;63.12;98946.22;5055169;27;96520;-85
2024/03/30 05:25:22;;;;;;;12.48;3.38;;;;;;;13.44;62.99;98946.00;5020075;27;99355;-86
2024/03/30 05:27:47;;;;;;;16.27;3.40;;;;;;;13.25;63.27;98940.25;5020527;27;96580;-86
2024/03/30 05:30:14;;;;;;;12.45;3.15;;;;;;;13.41;63.17;98953.25;5054433;27;97058;-86
2024/03/30 05:32:39;;;;;;;9.82;3.08;;;;;;;13.59;62.64;98954.69;5037091;27;98094;-87
2024/03/30 05:35:06;;;;;;;8.15;3.20;;;;;;;13.68;61.72;98954.03;5019522;27;99951;-85
2024/03/30 05:37:31;;;;;;;11.13;3.58;;;;;;;13.80;61.98;98958.47;5019790;27;96581;-86
2024/03/30 05:39:57;;;;;;;11.57;3.40;;;;;;;13.80;61.75;98958.47;5054054;27;96762;-86
2024/03/30 05:42:22;;;;;;;12.43;3.85;;;;;;;13.84;61.68;98963.53;5036837;27;101652;-86
2024/03/30 05:44:48;;;;;;;11.93;3.13;;;;;;;13.76;61.70;98958.81;5040150;27;97452;-86
2024/03/30 05:47:13;;;;;;;12.32;3.97;;;;;;;13.78;61.78;98956.88;5040510;27;96511;-86
2024/03/30 05:49:39;;;;;;;8.70;2.92;;;;;;;13.95;61.54;98961.00;5040540;27;96913;-87
2024/03/30 05:52:05;;;;;;;10.30;3.55;;;;;;;14.02;61.21;98967.53;5039848;27;101387;-87
2024/03/30 05:54:31;;;;;;;11.10;3.70;;;;;;;13.92;61.11;98958.56;5039987;27;101311;-86
2024/03/30 05:56:56;;;;;;;8.80;3.05;;;;;;;13.84;61.32;98967.00;5039997;27;96722;-86
2024/03/30 05:59:22;;;;;;;10.85;3.83;;;;;;;13.86;61.64;98956.38;5057497;27;96905;-86
2024/03/30 06:01:47;;;;;;;7.88;3.30;;;;;;;14.12;60.75;98955.38;5039195;27;101590;-86
2024/03/30 06:04:14;;;;;;;15.93;3.97;;;;;;;14.21;60.67;98954.75;5038987;27;101320;-87
2024/03/30 06:06:39;;;;;;;14.48;3.42;;;;;;;14.42;60.17;98949.72;5056773;27;96673;-87
2024/03/30 06:09:05;;;;;;;18.42;5.40;;;;;;;14.48;59.66;98948.44;5022754;27;96884;-86
2024/03/30 06:11:31;;;;;;;12.00;3.10;;;;;;;14.46;60.10;98940.66;5039104;27;101416;-87
2024/03/30 06:13:57;;;;;;;13.60;3.92;;;;;;;14.58;59.87;98932.84;5039607;27;97677;-86
2024/03/30 06:16:22;;;;;;;9.98;3.70;;;;;;;14.72;59.43;98935.31;5039560;27;96682;-86
2024/03/30 06:18:48;;;;;;;14.35;3.22;;;;;;;14.99;58.74;98929.78;5039691;27;96967;-86
2024/03/30 06:21:15;;;;;;;10.05;3.40;;;;;;;15.17;58.22;98930.22;5038871;27;100155;-85
2024/03/30 06:23:41;;;;;;;12.80;4.32;;;;;;;15.55;57.57;98939.69;5022315;27;100379;-84
2024/03/30 06:26:07;;;;;;;12.50;3.45;;;;;;;15.53;57.53;98937.19;5021808;27;96619;-84
2024/03/30 06:28:32;;;;;;;12.55;3.55;;;;;;;15.63;57.44;98943.44;5022357;27;96729;-84
2024/03/30 06:31:01;;;;;;;11.43;3.67;;;;;;;16.05;56.69;98950.84;5021794;27;101393;-84
2024/03/30 06:33:27;;;;;;;11.93;3.10;;;;;;;16.48;55.76;98950.09;5038948;27;96603;-84
2024/03/30 06:35:55;;;;;;;15.88;5.40;;;;;;;16.50;55.83;98948.19;5055811;27;96573;-84
2024/03/30 06:38:21;;;;;;;11.23;3.75;;;;;;;16.81;55.05;98945.72;5038653;27;96915;-84
2024/03/30 06:43:44;;;;;;;12.23;4.07;;;;;;;17.32;53.92;98942.38;5056296;27;97598;-85
2024/03/30 06:46:10;;;;;;;15.35;4.25;;;;;;;17.48;53.37;98940.09;5023837;27;96513;-85
2024/03/30 06:48:36;;;;;;;16.95;4.18;;;;;;;17.76;52.39;98948.41;5021866;27;96867;-84
2024/03/30 06:51:02;;;;;;;13.73;3.90;;;;;;;18.08;51.79;98948.31;5037710;27;101473;-84
2024/03/30 06:53:28;;;;;;;15.65;4.47;;;;;;;18.29;51.17;98950.91;5020831;27;100307;-84
2024/03/30 06:55:54;;;;;;;24.48;4.25;;;;;;;18.47;50.72;98945.78;5054688;27;96696;-85
2024/03/30 06:58:20;;;;;;;19.52;4.07;;;;;;;18.58;50.16;98942.19;5055818;27;96632;-84
2024/03/30 07:00:47;;;;;;;16.27;5.68;;;;;;;18.89;49.42;98942.97;5037918;27;101100;-85
2024/03/30 07:03:13;;;;;;;10.35;3.63;;;;;;;19.05;49.21;98948.56;5023875;27;101434;-84
2024/03/30 07:05:39;;;;;;;23.45;4.88;;;;;;;19.23;48.76;98949.56;5024854;27;96725;-85
2024/03/30 07:08:04;;;;;;;18.48;3.63;;;;;;;19.45;48.46;98944.91;5041758;27;96840;-84
2024/03/30 07:10:30;;;;;;;15.98;4.05;;;;;;;19.40;48.51;98941.84;5058374;27;97763;-84
2024/03/30 07:12:55;;;;;;;14.80;4.28;;;;;;;18.81;49.07;98940.16;5041176;27;102048;-83
2024/03/30 07:15:21;;;;;;;18.48;4.00;;;;;;;18.20;50.25;98946.41;5024012;27;96561;-83
2024/03/30 07:17:47;;;;;;;23.85;6.78;;;;;;;18.04;50.84;98941.59;5024545;27;96905;-84
2024/03/30 07:20:13;;;;;;;23.23;5.82;;;;;;;18.45;49.75;98943.28;5024407;27;101536;-84
2024/03/30 07:22:39;;;;;;;20.25;4.28;;;;;;;18.78;49.07;98939.44;5024059;27;101072;-84
2024/03/30 07:25:05;;;;;;;20.17;4.72;;;;;;;19.16;47.94;98935.13;5041291;27;96573;-86
2024/03/30 07:27:30;;;;;;;19.05;4.28;;;;;;;19.95;46.93;98947.34;5041579;27;96578;-85
2024/03/30 07:29:56;;;;;;;22.98;4.57;;;;;;;20.19;46.42;98943.34;5041384;27;101646;-85
2024/03/30 07:32:22;;;;;;;21.40;4.38;;;;;;;20.60;45.60;98938.56;5041517;27;101226;-84
2024/03/30 07:34:49;;;;;;;33.22;6.88;;;;;;;20.62;45.37;98937.41;5027953;27;96656;-84
2024/03/30 07:37:14;;;;;;;28.33;5.18;;;;;;;20.65;45.24;98931.75;5028921;27;96605;-84
2024/03/30 07:39:40;;;;;;;22.55;4.60;;;;;;;20.84;44.83;98932.63;5041287;27;98084;-85
2024/03/30 07:42:07;;;;;;;29.27;5.47;;;;;;;21.00;44.50;98935.44;5041000;27;97512;-84
2024/03/30 07:44:33;;;;;;;30.10;6.78;;;;;;;20.89;44.53;98933.88;5059367;27;96642;-82
2024/03/30 07:46:59;;;;;;;19.52;4.93;;;;;;;21.14;44.38;98934.91;5040974;27;96571;-84
2024/03/30 07:49:24;;;;;;;33.78;6.63;;;;;;;21.43;43.81;98928.50;5040705;27;101062;-84
2024/03/30 07:51:50;;;;;;;37.55;8.77;;;;;;;21.59;43.24;98933.16;5023915;27;101725;-84
2024/03/30 07:54:16;;;;;;;41.15;6.78;;;;;;;21.82;43.19;98931.63;5024078;27;96622;-84
2024/03/30 07:56:41;;;;;;;28.10;5.22;;;;;;;21.87;42.80;98931.97;5041061;27;96952;-84
2024/03/30 07:59:07;;;;;;;33.67;7.32;;;;;;;21.92;42.71;98937.69;5057727;27;97508;-80
2024/03/30 08:01:33;;;;;;;28.58;6.03;;;;;;;21.75;43.14;98929.75;5056970;27;101396;-83
2024/03/30 08:03:59;;;;;;;37.15;5.55;;;;;;;22.02;42.27;98928.72;5022766;27;96698;-82
2024/03/30 08:06:25;;;;;;;36.20;6.68;;;;;;;22.01;42.47;98919.88;5040047;27;96563;-82
2024/03/30 08:08:51;;;;;;;33.85;6.38;;;;;;;21.96;42.53;98929.34;5040200;27;101218;-82
2024/03/30 08:11:16;;;;;;;35.30;9.55;;;;;;;22.49;41.61;98934.50;5023372;27;101572;-82
2024/03/30 08:13:42;;;;;;;44.15;7.07;;;;;;;22.57;41.68;98931.00;5040761;27;96626;-82
2024/03/30 08:16:07;;;;;;;38.78;7.75;;;;;;;22.69;41.84;98939.53;5057523;27;96849;-83
2024/03/30 08:18:34;;;;;;;40.35;7.03;;;;;;;22.64;41.99;98940.06;5057278;27;98217;-83
2024/03/30 08:21:04;;;;;;;38.55;7.38;;;;;;;22.64;41.96;98931.19;5040565;27;97730;-84
2024/03/30 08:23:31;;;;;;;41.63;6.18;;;;;;;23.35;41.01;98924.44;5040632;27;96679;-86
2024/03/30 08:25:56;;;;;;;42.08;7.78;;;;;;;24.10;39.41;98919.66;5024562;27;97055;-90
2024/03/30 08:28:22;;;;;;;40.45;7.43;;;;;;;24.07;39.48;98932.56;5040696;27;98545;-83
2024/03/30 08:30:49;;;;;;;39.10;7.00;;;;;;;23.56;39.89;98943.53;5039734;27;101748;-83
2024/03/30 08:33:18;;;;;;;35.78;6.85;;;;;;;23.30;40.13;98941.03;5023619;27;96764;-88
2024/03/30 08:36:01;;;;;;;39.35;7.45;;;;;;;22.17;41.82;98940.53;5024199;27;96716;-88
2024/03/30 08:38:27;;;;;;;51.75;7.55;;;;;;;21.74;42.48;98933.41;5024700;27;101307;-90
2024/03/30 08:40:53;;;;;;;46.90;7.53;;;;;;;21.94;42.54;98926.88;5058896;27;98348;-89
2024/03/30 08:43:19;;;;;;;51.42;9.18;;;;;;;22.37;41.98;98933.13;5041250;27;96549;-89
2024/03/30 08:45:44;;;;;;;34.40;7.20;;;;;;;23.16;40.88;98925.63;5025058;27;96498;-89
2024/03/30 08:48:14;;;;;;;37.05;7.75;;;;;;;24.18;39.36;98934.88;5024028;27;100617;-88
2024/03/30 08:50:40;;;;;;;34.38;7.90;;;;;;;25.09;37.77;98928.03;5023926;27;101511;-88
2024/03/30 08:53:09;;;;;;;40.92;7.15;;;;;;;25.36;37.27;98932.03;5023658;27;96652;-89
2024/03/30 08:55:36;;;;;;;41.83;7.78;;;;;;;24.65;38.41;98919.78;5023854;27;96913;-89
2024/03/30 08:58:02;;;;;;;41.90;8.05;;;;;;;24.34;38.63;98929.44;5023758;27;100191;-88
2024/03/30 09:00:27;;;;;;;50.00;10.00;;;;;;;24.66;38.14;98933.00;5023762;27;101586;-89
2024/03/30 09:02:54;;;;;;;42.55;7.25;;;;;;;25.16;37.50;98929.06;5023606;27;96628;-88
2024/03/30 09:05:23;;;;;;;50.08;9.15;;;;;;;25.05;37.20;98938.31;5058133;27;96781;-89
2024/03/30 09:07:49;;;;;;;51.35;9.77;;;;;;;25.60;35.84;98940.91;5022799;27;100382;-88
2024/03/30 09:10:15;;;;;;;55.13;10.30;;;;;;;25.68;35.63;98935.47;5057138;27;98576;-86
2024/03/30 09:12:40;;;;;;;51.60;9.43;;;;;;;25.33;36.36;98936.97;5023043;27;96669;-85
2024/03/30 09:15:06;;;;;;;63.92;12.75;;;;;;;24.14;38.45;98938.91;5040085;27;96826;-87
2024/03/30 09:17:32;;;;;;;50.55;8.40;;;;;;;24.38;38.25;98935.31;5039714;27;99945;-92
2024/03/30 09:19:57;;;;;;;44.15;8.27;;;;;;;25.27;37.02;98927.75;5043442;27;98277;-86
2024/03/30 09:22:23;;;;;;;47.13;8.55;;;;;;;25.50;36.62;98933.94;5043694;27;96587;-86
2024/03/30 09:24:50;;;;;;;50.15;9.75;;;;;;;24.64;37.56;98943.09;5060590;27;96581;-85
2024/03/30 09:27:16;;;;;;;44.17;8.48;;;;;;;26.91;34.57;98942.97;5042811;27;101432;-85
2024/03/30 09:29:42;;;;;;;49.83;10.68;;;;;;;27.18;34.03;98932.50;5042744;27;101360;-85
2024/03/30 09:32:07;;;;;;;42.20;8.80;;;;;;;25.77;35.71;98931.66;5043291;27;96574;-81
2024/03/30 09:34:33;;;;;;;45.15;8.85;;;;;;;24.82;37.55;98943.66;5060797;27;96896;-86
2024/03/30 09:36:58;;;;;;;47.03;8.68;;;;;;;25.42;37.05;98939.38;5025803;27;101517;-86
2024/03/30 09:39:24;;;;;;;49.45;10.65;;;;;;;26.06;36.08;98930.88;5042982;27;98071;-85
2024/03/30 09:41:55;;;;;;;48.30;10.10;;;;;;;25.34;36.92;98934.09;5042477;27;96531;-86
2024/03/30 09:44:20;;;;;;;46.70;9.02;;;;;;;25.43;36.42;98934.88;5043679;27;96615;-85
2024/03/30 09:46:47;;;;;;;60.55;10.68;;;;;;;25.26;36.09;98936.84;5025757;27;100284;-85
2024/03/30 09:49:14;;;;;;;64.93;11.80;;;;;;;26.31;34.74;98936.81;5059984;27;100095;-86
2024/03/30 09:51:42;;;;;;;71.10;12.23;;;;;;;26.76;33.67;98942.16;5026016;27;96547;-85
2024/03/30 09:54:08;;;;;;;65.80;12.35;;;;;;;25.63;34.91;98929.81;5059382;27;96905;-86
2024/03/30 09:56:34;;;;;;;79.75;12.15;;;;;;;26.04;34.46;98932.13;5025770;27;101109;-91
2024/03/30 09:59:02;;;;;;;61.22;11.57;;;;;;;25.79;34.94;98944.94;5026949;27;101127;-89
2024/03/30 10:01:27;;;;;;;75.18;11.88;;;;;;;25.32;35.15;98935.28;5043640;27;96649;-90
2024/03/30 10:03:53;;;;;;;68.65;12.02;;;;;;;25.02;35.76;98935.16;5039405;27;96901;-92
2024/03/30 10:06:22;;;;;;;63.22;12.00;;;;;;;24.59;36.30;98929.38;5039345;27;101336;-93
2024/03/30 10:08:52;;;;;;;78.95;13.30;;;;;;;23.98;36.96;98934.44;5022800;27;100217;-92
2024/03/30 10:11:19;;;;;;;75.03;11.50;;;;;;;24.62;36.46;98920.97;5023146;27;96788;-91
2024/03/30 10:13:55;;;;;;;43.88;8.90;;;;;;;24.40;38.44;98933.28;5039651;27;96914;-91
2024/03/30 10:16:20;;;;;;;41.95;9.70;;;;;;;23.99;40.11;98913.81;5022159;27;101168;-88
2024/03/30 10:18:49;;;;;;;37.95;7.40;;;;;;;23.90;40.91;98916.53;5039517;27;97386;-90
2024/03/30 10:21:15;;;;;;;47.83;9.52;;;;;;;23.82;40.14;98905.81;5039121;27;96655;-90
2024/03/30 10:23:41;;;;;;;54.05;11.15;;;;;;;24.25;40.62;98914.41;5038332;27;96937;-82
2024/03/30 10:26:12;;;;;;;52.65;9.15;;;;;;;23.89;40.26;98914.88;5037233;27;101179;-85
2024/03/30 10:28:38;;;;;;;;;;;;;;;23.53;40.74;98905.53;5054581;27;97365;-87
2024/03/30 10:31:03;;;;;;;43.85;8.43;;;;;;;23.35;41.46;98909.22;5037216;27;96651;-87
2024/03/30 10:33:29;;;;;;;46.50;9.85;;;;;;;23.53;41.03;98908.19;5054974;27;96907;-90
2024/03/30 10:35:57;;;;;;;55.15;11.43;;;;;;;23.24;41.03;98921.13;5037563;27;101317;-89
2024/03/30 10:38:22;;;;;;;57.33;10.45;;;;;;;22.96;41.90;98923.25;5037895;27;101287;-88
2024/03/30 10:40:48;;;;;;;64.00;10.18;;;;;;;23.18;40.87;98927.09;5021241;27;96564;-87
2024/03/30 10:43:13;;;;;;;62.00;10.27;;;;;;;23.36;41.03;98920.75;5038179;27;96942;-87
2024/03/30 10:45:39;;;;;;;52.97;10.50;;;;;;;23.12;41.25;98917.06;5037911;27;98263;-86
2024/03/30 10:48:05;;;;;;;63.53;11.10;;;;;;;23.10;41.29;98918.28;5054837;27;97767;-92
2024/03/30 10:50:32;;;;;;;62.95;12.98;;;;;;;23.09;40.94;98921.94;5038202;27;96679;-89
2024/03/30 10:52:57;;;;;;;77.78;12.60;;;;;;;22.89;40.77;98932.91;5038082;27;96767;-87
2024/03/30 10:55:23;;;;;;;56.45;10.50;;;;;;;22.75;40.57;98925.53;5053575;27;101564;-90
2024/03/30 10:57:52;;;;;;;73.32;11.35;;;;;;;22.93;40.71;98925.41;5037599;27;100878;-89
2024/03/30 11:00:18;;;;;;;70.93;11.68;;;;;;;23.07;40.34;98919.44;5038071;27;96566;-90
2024/03/30 11:02:45;;;;;;;78.25;14.07;;;;;;;22.81;40.88;98928.38;5038502;27;96890;-90
2024/03/30 11:05:10;;;;;;;58.33;12.52;;;;;;;22.81;39.73;98925.72;5038060;27;101399;-89
2024/03/30 11:07:37;;;;;;;63.42;12.50;;;;;;;22.96;40.89;98915.25;5055736;27;96600;-90
2024/03/30 11:10:06;;;;;;;70.47;13.13;;;;;;;23.07;40.64;98911.41;5038844;27;96588;-87
2024/03/30 11:12:32;;;;;;;63.25;11.43;;;;;;;23.09;40.07;98916.56;5022324;27;96821;-88
2024/03/30 11:14:58;;;;;;;81.20;12.02;;;;;;;22.97;38.83;98916.91;5021626;27;101329;-89
2024/03/30 11:17:29;;;;;;;79.20;14.55;;;;;;;23.10;39.92;98919.09;5037617;27;101296;-82
2024/03/30 11:19:58;;;;;;;63.45;10.57;;;;;;;23.21;39.43;98912.56;5037331;27;96568;-87
2024/03/30 11:22:41;;;;;;;75.20;14.23;;;;;;;23.30;39.08;98911.59;5037686;27;96936;-85